createdAt,value
2022-09-10T00:00:25.652Z,2.70
2022-09-10T00:03:12.423Z,4.70
2022-09-10T00:05:41.645Z,4.80
2022-09-10T00:08:18.260Z,3.13
2022-09-10T00:10:48.024Z,2.20
2022-09-10T00:13:18.979Z,4.05
2022-09-10T00:15:49.971Z,3.63
2022-09-10T00:18:23.616Z,3.20
2022-09-10T00:20:53.655Z,2.35
2022-09-10T00:23:28.649Z,1.95
2022-09-10T00:25:57.787Z,2.35
2022-09-10T00:28:28.407Z,3.67
2022-09-10T00:30:57.169Z,1.63
2022-09-10T00:33:44.834Z,3.25
2022-09-10T00:36:18.281Z,2.10
2022-09-10T00:38:47.467Z,3.20
2022-09-10T00:41:17.405Z,9.93
2022-09-10T00:43:52.767Z,3.55
2022-09-10T00:46:25.263Z,1.85
2022-09-10T00:48:56.090Z,2.78
2022-09-10T00:51:27.228Z,2.15
2022-09-10T00:53:56.228Z,3.13
2022-09-10T00:56:25.006Z,1.38
2022-09-10T00:58:53.460Z,4.82
2022-09-10T01:01:23.150Z,6.80
2022-09-10T01:03:51.982Z,5.22
2022-09-10T01:06:22.076Z,2.45
2022-09-10T01:08:50.475Z,2.83
2022-09-10T01:11:37.675Z,3.40
2022-09-10T01:14:22.306Z,0.90
2022-09-10T01:17:20.099Z,4.18
2022-09-10T01:19:57.300Z,2.00
2022-09-10T01:22:46.792Z,1.15
2022-09-10T01:25:24.323Z,3.65
2022-09-10T01:27:53.720Z,6.65
2022-09-10T01:30:33.251Z,2.33
2022-09-10T01:33:22.467Z,6.55
2022-09-10T01:35:57.405Z,4.45
2022-09-10T01:38:31.900Z,4.28
2022-09-10T01:41:00.926Z,2.67
2022-09-10T01:46:12.448Z,3.67
2022-09-10T01:49:01.755Z,2.92
2022-09-10T01:51:36.896Z,2.25
2022-09-10T01:54:04.741Z,5.18
2022-09-10T01:56:35.638Z,0.75
2022-09-10T01:59:11.516Z,8.18
2022-09-10T02:01:50.419Z,1.08
2022-09-10T02:04:19.009Z,3.70
2022-09-10T02:06:50.790Z,3.95
2022-09-10T02:09:19.902Z,2.47
2022-09-10T02:11:51.009Z,4.22
2022-09-10T02:14:43.144Z,1.13
2022-09-10T02:17:50.164Z,4.38
2022-09-10T02:20:20.557Z,5.05
2022-09-10T02:22:59.089Z,4.57
2022-09-10T02:25:33.410Z,4.40
2022-09-10T02:28:04.474Z,1.70
2022-09-10T02:30:35.205Z,2.80
2022-09-10T02:33:16.179Z,6.57
2022-09-10T02:35:47.549Z,3.67
2022-09-10T02:38:18.139Z,2.95
2022-09-10T02:40:50.029Z,2.55
2022-09-10T02:43:18.685Z,3.10
2022-09-10T02:45:46.835Z,1.20
2022-09-10T02:48:34.660Z,2.92
2022-09-10T02:51:04.775Z,3.28
2022-09-10T02:53:33.628Z,2.85
2022-09-10T02:56:05.746Z,2.17
2022-09-10T02:58:36.298Z,3.58
2022-09-10T03:01:14.648Z,4.03
2022-09-10T03:03:55.408Z,4.20
2022-09-10T03:06:24.827Z,3.17
2022-09-10T03:08:54.456Z,4.68
2022-09-10T03:11:24.145Z,2.90
2022-09-10T03:13:56.130Z,1.80
2022-09-10T03:16:25.640Z,3.70
2022-09-10T03:18:54.034Z,6.78
2022-09-10T03:21:25.045Z,5.65
2022-09-10T03:23:56.777Z,3.65
2022-09-10T03:26:30.017Z,6.65
2022-09-10T03:28:59.356Z,8.05
2022-09-10T03:31:32.223Z,5.65
2022-09-10T03:34:01.407Z,5.75
2022-09-10T03:36:31.554Z,6.85
2022-09-10T03:39:01.335Z,3.75
2022-09-10T03:41:35.078Z,10.70
2022-09-10T03:44:05.159Z,2.28
2022-09-10T03:46:36.307Z,7.28
2022-09-10T03:49:08.038Z,4.55
2022-09-10T03:51:36.680Z,5.65
2022-09-10T03:54:08.373Z,3.03
2022-09-10T03:56:37.853Z,7.15
2022-09-10T03:59:07.935Z,6.03
2022-09-10T04:01:37.069Z,6.50
2022-09-10T04:04:09.177Z,4.40
2022-09-10T04:06:38.589Z,9.25
2022-09-10T04:09:08.499Z,4.82
2022-09-10T04:11:37.884Z,3.22
2022-09-10T04:14:07.816Z,5.82
2022-09-10T04:16:39.793Z,5.22
2022-09-10T04:19:10.498Z,6.85
2022-09-10T04:21:41.088Z,9.98
2022-09-10T04:24:13.084Z,11.00
2022-09-10T04:26:42.084Z,3.58
2022-09-10T04:29:14.505Z,10.65
2022-09-10T04:31:46.694Z,3.78
2022-09-10T04:34:23.440Z,8.05
2022-09-10T04:36:53.921Z,6.80
2022-09-10T04:39:25.083Z,9.20
2022-09-10T04:41:54.759Z,5.35
2022-09-10T04:44:23.693Z,12.52
2022-09-10T04:46:55.602Z,19.42
2022-09-10T04:49:25.802Z,8.20
2022-09-10T04:51:55.088Z,6.38
2022-09-10T04:57:02.684Z,10.07
2022-09-10T04:59:32.014Z,17.33
2022-09-10T05:02:03.691Z,10.07
2022-09-10T05:04:35.089Z,10.95
2022-09-10T05:07:07.925Z,10.15
2022-09-10T05:09:37.776Z,13.02
2022-09-10T05:12:07.203Z,15.13
2022-09-10T05:14:36.228Z,9.75
2022-09-10T05:17:04.782Z,7.55
2022-09-10T05:19:37.312Z,6.78
2022-09-10T05:22:09.720Z,8.77
2022-09-10T05:24:38.719Z,8.40
2022-09-10T05:27:09.485Z,19.75
2022-09-10T05:29:38.354Z,11.68
2022-09-10T05:32:09.399Z,6.93
2022-09-10T05:34:40.483Z,15.85
2022-09-10T05:37:09.038Z,10.82
2022-09-10T05:39:38.664Z,12.95
2022-09-10T05:42:07.205Z,8.45
2022-09-10T05:44:41.360Z,6.82
2022-09-10T05:47:12.268Z,8.80
2022-09-10T05:49:41.642Z,12.27
2022-09-10T05:52:10.478Z,14.43
2022-09-10T05:54:40.223Z,11.50
2022-09-10T05:57:09.468Z,9.55
2022-09-10T05:59:40.347Z,12.95
2022-09-10T06:02:18.690Z,11.60
2022-09-10T06:04:51.866Z,21.42
2022-09-10T06:07:21.119Z,9.13
2022-09-10T06:09:49.587Z,7.95
2022-09-10T06:12:29.644Z,16.50
2022-09-10T06:14:57.989Z,14.95
2022-09-10T06:17:26.359Z,9.38
2022-09-10T06:19:54.797Z,10.45
2022-09-10T06:22:23.248Z,8.18
2022-09-10T06:24:55.557Z,12.65
2022-09-10T06:27:30.864Z,11.23
2022-09-10T06:29:59.351Z,9.88
2022-09-10T06:32:32.706Z,13.57
2022-09-10T06:35:02.542Z,11.70
2022-09-10T06:37:38.820Z,13.25
2022-09-10T06:40:10.881Z,19.20
2022-09-10T06:42:43.664Z,12.85
2022-09-10T06:45:16.178Z,11.43
2022-09-10T06:50:59.768Z,11.02
2022-09-10T06:53:36.348Z,8.00
2022-09-10T06:56:08.244Z,13.43
2022-09-10T06:58:40.460Z,9.85
2022-09-10T07:01:15.763Z,11.32
2022-09-10T07:03:55.737Z,16.80
2022-09-10T07:06:28.420Z,11.13
2022-09-10T07:09:04.160Z,14.88
2022-09-10T07:11:41.608Z,12.23
2022-09-10T07:14:13.917Z,14.20
2022-09-10T07:16:44.569Z,10.02
2022-09-10T07:19:14.896Z,10.82
2022-09-10T07:21:47.599Z,10.35
2022-09-10T07:24:20.119Z,12.32
2022-09-10T07:27:04.259Z,12.98
2022-09-10T07:29:35.192Z,13.15
2022-09-10T07:32:05.516Z,9.77
2022-09-10T07:34:38.511Z,12.00
2022-09-10T07:37:07.697Z,14.15
2022-09-10T07:39:37.987Z,11.73
2022-09-10T07:42:11.613Z,13.88
2022-09-10T07:44:44.182Z,14.90
2022-09-10T07:47:14.520Z,10.70
2022-09-10T07:49:43.818Z,14.90
2022-09-10T07:52:15.493Z,10.48
2022-09-10T07:54:50.628Z,12.88
2022-09-10T07:57:21.132Z,16.30
2022-09-10T07:59:51.796Z,15.73
2022-09-10T08:02:25.777Z,10.90
2022-09-10T08:05:04.257Z,13.70
2022-09-10T08:07:39.762Z,9.65
2022-09-10T08:10:13.405Z,7.82
2022-09-10T08:12:59.382Z,9.85
2022-09-10T08:15:28.253Z,11.80
2022-09-10T08:18:00.688Z,19.25
2022-09-10T08:20:30.723Z,20.33
2022-09-10T08:23:00.708Z,9.50
2022-09-10T08:25:30.938Z,24.83
2022-09-10T08:27:59.481Z,20.08
2022-09-10T08:30:32.189Z,12.02
2022-09-10T08:33:18.237Z,15.23
2022-09-10T08:35:46.721Z,14.75
2022-09-10T08:38:15.169Z,14.90
2022-09-10T08:40:45.349Z,17.27
2022-09-10T08:43:16.465Z,15.93
2022-09-10T08:45:48.781Z,20.60
2022-09-10T08:48:19.772Z,14.88
2022-09-10T08:50:58.733Z,12.77
2022-09-10T08:53:47.669Z,16.75
2022-09-10T08:56:17.177Z,20.98
2022-09-10T08:59:09.172Z,21.70
2022-09-10T09:02:05.107Z,21.02
2022-09-10T09:04:55.840Z,16.23
2022-09-10T09:07:24.511Z,16.85
2022-09-10T09:09:59.342Z,15.65
2022-09-10T09:12:36.987Z,11.52
2022-09-10T09:15:17.291Z,16.10
2022-09-10T09:18:04.921Z,10.18
2022-09-10T09:20:42.297Z,15.63
2022-09-10T09:23:34.786Z,16.63
2022-09-10T09:26:05.561Z,13.52
2022-09-10T09:28:53.950Z,14.73
2022-09-10T09:31:33.787Z,13.68
2022-09-10T09:34:32.498Z,15.05
2022-09-10T09:37:04.385Z,14.02
2022-09-10T09:39:34.949Z,18.08
2022-09-10T09:42:03.521Z,12.88
2022-09-10T09:44:46.461Z,13.40
2022-09-10T09:47:15.466Z,12.73
2022-09-10T09:49:45.691Z,19.90
2022-09-10T09:52:23.490Z,14.95
2022-09-10T09:55:16.071Z,22.13
2022-09-10T09:57:47.149Z,16.88
2022-09-10T10:00:33.513Z,24.05
2022-09-10T10:03:07.659Z,16.77
2022-09-10T10:05:36.904Z,20.52
2022-09-10T10:08:05.459Z,23.52
2022-09-10T10:10:35.091Z,20.13
2022-09-10T10:13:05.468Z,23.48
2022-09-10T10:15:36.430Z,33.63
2022-09-10T10:18:25.287Z,25.88
2022-09-10T10:21:14.222Z,28.73
2022-09-10T10:23:42.471Z,26.20
2022-09-10T10:26:23.381Z,25.77
2022-09-10T10:28:54.996Z,31.85
2022-09-10T10:31:23.653Z,27.15
2022-09-10T10:34:10.123Z,26.88
2022-09-10T10:36:39.286Z,40.17
2022-09-10T10:39:28.511Z,32.35
2022-09-10T10:42:07.871Z,29.88
2022-09-10T10:44:41.196Z,28.92
2022-09-10T10:47:24.571Z,30.23
2022-09-10T10:50:08.962Z,27.98
2022-09-10T10:52:40.003Z,30.90
2022-09-10T10:55:10.929Z,29.13
2022-09-10T10:57:41.753Z,33.58
2022-09-10T11:00:18.888Z,34.75
2022-09-10T11:02:57.116Z,33.72
2022-09-10T11:05:31.077Z,34.70
2022-09-10T11:08:20.415Z,41.83
2022-09-10T11:10:51.677Z,46.83
2022-09-10T11:13:28.164Z,38.72
2022-09-10T11:16:02.514Z,48.72
2022-09-10T11:18:49.705Z,46.50
2022-09-10T11:21:21.025Z,50.25
2022-09-10T11:23:56.711Z,56.88
2022-09-10T11:26:42.497Z,49.97
2022-09-10T11:29:31.283Z,50.20
2022-09-10T11:32:03.837Z,41.05
2022-09-10T11:34:36.696Z,38.70
2022-09-10T11:37:23.455Z,37.95
2022-09-10T11:39:53.389Z,50.75
2022-09-10T11:42:26.752Z,37.65
2022-09-10T11:44:54.942Z,45.00
2022-09-10T11:47:31.330Z,46.20
2022-09-10T11:50:04.275Z,46.08
2022-09-10T11:52:34.651Z,53.15
2022-09-10T11:55:04.584Z,47.83
2022-09-10T11:57:41.360Z,45.95
2022-09-10T12:00:19.681Z,53.78
2022-09-10T12:03:16.986Z,52.50
2022-09-10T12:05:56.047Z,47.55
2022-09-10T12:08:30.648Z,54.03
2022-09-10T12:11:18.913Z,48.67
2022-09-10T12:13:49.374Z,50.60
2022-09-10T12:16:26.498Z,50.67
2022-09-10T12:18:57.164Z,51.40
2022-09-10T12:21:32.468Z,47.75
2022-09-10T12:24:04.146Z,56.42
2022-09-10T12:26:41.729Z,55.75
2022-09-10T12:29:26.552Z,52.63
2022-09-10T12:32:10.100Z,47.97
2022-09-10T12:34:38.631Z,41.58
2022-09-10T12:37:06.496Z,43.60
2022-09-10T12:39:35.195Z,38.63
2022-09-10T12:42:04.005Z,42.75
2022-09-10T12:44:45.142Z,37.53
2022-09-10T12:47:16.391Z,39.72
2022-09-10T12:49:55.885Z,39.95
2022-09-10T12:52:25.093Z,41.00
2022-09-10T12:55:02.691Z,41.55
2022-09-10T12:57:47.504Z,37.95
2022-09-10T13:00:25.917Z,42.75
2022-09-10T13:03:06.121Z,33.08
2022-09-10T13:05:40.156Z,35.20
2022-09-10T13:08:09.148Z,40.03
2022-09-10T13:10:38.724Z,36.95
2022-09-10T13:13:24.560Z,33.05
2022-09-10T13:15:54.303Z,35.38
2022-09-10T13:18:25.388Z,30.77
2022-09-10T13:20:53.924Z,32.95
2022-09-10T13:23:23.857Z,31.00
2022-09-10T13:25:52.633Z,35.83
2022-09-10T13:28:32.862Z,24.65
2022-09-10T13:31:11.895Z,34.25
2022-09-10T13:33:49.170Z,30.67
2022-09-10T13:36:35.771Z,30.83
2022-09-10T13:39:15.914Z,33.97
2022-09-10T13:42:03.195Z,25.95
2022-09-10T13:44:49.484Z,29.13
2022-09-10T13:47:28.197Z,47.58
2022-09-10T13:50:02.053Z,32.92
2022-09-10T13:52:36.472Z,29.20
2022-09-10T13:55:08.092Z,23.77
2022-09-10T13:57:41.089Z,28.85
2022-09-10T14:00:30.090Z,23.67
2022-09-10T14:03:18.180Z,20.45
2022-09-10T14:05:47.352Z,21.35
2022-09-10T14:08:19.519Z,27.50
2022-09-10T14:10:51.691Z,19.38
2022-09-10T14:13:23.567Z,23.75
2022-09-10T14:15:54.308Z,20.45
2022-09-10T14:18:24.180Z,23.73
2022-09-10T14:20:53.534Z,26.38
2022-09-10T14:23:23.805Z,25.00
2022-09-10T14:26:08.819Z,28.00
2022-09-10T14:28:49.098Z,29.35
2022-09-10T14:31:21.775Z,27.92
2022-09-10T14:33:50.336Z,24.40
2022-09-10T14:36:21.458Z,31.08
2022-09-10T14:39:12.786Z,31.05
2022-09-10T14:41:40.997Z,30.50
2022-09-10T14:44:14.470Z,30.55
2022-09-10T14:46:51.520Z,34.58
2022-09-10T14:49:25.208Z,30.63
2022-09-10T14:51:53.657Z,29.02
2022-09-10T14:54:22.752Z,34.65
2022-09-10T14:56:51.717Z,35.17
2022-09-10T14:59:20.683Z,32.33
2022-09-10T15:01:51.521Z,31.67
2022-09-10T15:04:23.621Z,33.33
2022-09-10T15:06:54.055Z,35.10
2022-09-10T15:09:23.242Z,34.45
2022-09-10T15:11:54.975Z,33.78
2022-09-10T15:14:24.853Z,32.78
2022-09-10T15:16:54.157Z,37.80
2022-09-10T15:19:24.104Z,29.52
2022-09-10T15:21:53.472Z,29.38
2022-09-10T15:24:23.737Z,32.50
2022-09-10T15:26:57.433Z,32.75
2022-09-10T15:29:26.126Z,30.73
2022-09-10T15:31:59.353Z,30.17
2022-09-10T15:34:28.521Z,29.63
2022-09-10T15:36:58.575Z,29.30
2022-09-10T15:39:27.891Z,34.40
2022-09-10T15:41:56.256Z,36.42
2022-09-10T15:44:25.269Z,29.70
2022-09-10T15:46:56.332Z,29.10
2022-09-10T15:49:32.085Z,30.50
2022-09-10T15:52:01.631Z,31.63
2022-09-10T15:54:33.310Z,34.40
2022-09-10T15:57:02.139Z,32.53
2022-09-10T15:59:32.234Z,39.30
2022-09-10T16:02:02.183Z,29.77
2022-09-10T16:04:36.680Z,42.28
2022-09-10T16:07:09.096Z,35.13
2022-09-10T16:09:38.011Z,31.17
2022-09-10T16:12:06.306Z,33.55
2022-09-10T16:14:44.657Z,30.15
2022-09-10T16:17:17.267Z,32.05
2022-09-10T16:19:49.693Z,28.95
2022-09-10T16:22:20.677Z,39.92
2022-09-10T16:24:50.869Z,32.08
2022-09-10T16:27:19.303Z,32.15
2022-09-10T16:29:52.611Z,37.97
2022-09-10T16:32:22.894Z,36.10
2022-09-10T16:34:51.655Z,38.60
2022-09-10T16:37:23.321Z,35.80
2022-09-10T16:39:52.451Z,44.78
2022-09-10T16:42:22.664Z,40.35
2022-09-10T16:44:54.837Z,42.53
2022-09-10T16:47:24.517Z,41.13
2022-09-10T16:49:56.992Z,49.47
2022-09-10T16:52:26.171Z,41.78
2022-09-10T16:54:57.666Z,50.63
2022-09-10T16:57:27.273Z,49.20
2022-09-10T16:59:58.403Z,45.70
2022-09-10T17:02:29.458Z,45.78
2022-09-10T17:04:58.735Z,40.67
2022-09-10T17:07:30.324Z,47.08
2022-09-10T17:10:01.608Z,49.28
2022-09-10T17:12:33.919Z,41.13
2022-09-10T17:15:02.221Z,44.35
2022-09-10T17:17:41.589Z,44.83
2022-09-10T17:20:10.969Z,47.67
2022-09-10T17:22:42.513Z,50.30
2022-09-10T17:25:11.671Z,56.92
2022-09-10T17:27:47.451Z,53.70
2022-09-10T17:30:16.829Z,42.53
2022-09-10T17:33:05.995Z,36.70
2022-09-10T17:35:37.121Z,45.47
2022-09-10T17:38:08.275Z,38.28
2022-09-10T17:40:41.689Z,36.30
2022-09-10T17:43:13.767Z,36.55
2022-09-10T17:45:44.527Z,38.20
2022-09-10T17:48:15.331Z,42.80
2022-09-10T17:50:50.068Z,34.97
2022-09-10T17:53:20.366Z,36.30
2022-09-10T17:55:48.775Z,42.42
2022-09-10T17:58:17.756Z,34.85
2022-09-10T18:00:48.450Z,40.72
2022-09-10T18:03:36.018Z,42.58
2022-09-10T18:06:06.502Z,44.03
2022-09-10T18:08:41.860Z,33.70
2022-09-10T18:11:13.805Z,41.63
2022-09-10T18:13:44.358Z,36.75
2022-09-10T18:16:14.551Z,40.95
2022-09-10T18:18:45.510Z,41.88
2022-09-10T18:21:18.025Z,36.88
2022-09-10T18:23:53.310Z,42.95
2022-09-10T18:28:59.937Z,37.72
2022-09-10T18:31:29.967Z,42.00
2022-09-10T18:33:59.826Z,39.08
2022-09-10T18:36:29.200Z,46.50
2022-09-10T18:39:02.853Z,40.28
2022-09-10T18:41:37.853Z,47.50
2022-09-10T18:44:08.869Z,40.22
2022-09-10T18:46:40.685Z,46.70
2022-09-10T18:49:12.091Z,62.83
2022-09-10T18:51:42.980Z,44.42
2022-09-10T18:54:13.926Z,39.80
2022-09-10T18:56:48.045Z,49.22
2022-09-10T18:59:23.263Z,41.67
2022-09-10T19:01:54.161Z,46.13
2022-09-10T19:04:28.167Z,36.55
2022-09-10T19:07:01.370Z,42.47
2022-09-10T19:09:31.683Z,36.03
2022-09-10T19:12:01.005Z,44.10
2022-09-10T19:14:32.208Z,42.67
2022-09-10T19:17:01.375Z,43.28
2022-09-10T19:19:33.012Z,46.47
2022-09-10T19:22:03.349Z,34.53
2022-09-10T19:24:54.060Z,42.90
2022-09-10T19:27:24.369Z,45.20
2022-09-10T19:29:53.749Z,47.03
2022-09-10T19:32:22.486Z,43.65
2022-09-10T19:34:52.100Z,47.55
2022-09-10T19:37:24.282Z,43.40
2022-09-10T19:39:56.562Z,45.67
2022-09-10T19:42:25.650Z,48.55
2022-09-10T19:44:55.659Z,54.13
2022-09-10T19:47:28.374Z,47.50
2022-09-10T19:49:59.117Z,48.13
2022-09-10T19:52:28.612Z,45.92
2022-09-10T19:54:56.933Z,46.58
2022-09-10T19:57:25.837Z,38.92
2022-09-10T19:59:54.463Z,46.47
2022-09-10T20:02:23.883Z,48.13
2022-09-10T20:05:00.355Z,44.15
2022-09-10T20:07:36.731Z,46.97
2022-09-10T20:10:08.836Z,66.53
2022-09-10T20:12:44.461Z,96.32
2022-09-10T20:15:13.321Z,74.65
2022-09-10T20:17:45.286Z,58.72
2022-09-10T20:20:14.420Z,53.50
2022-09-10T20:22:48.077Z,47.78
2022-09-10T20:25:16.482Z,44.72
2022-09-10T20:27:45.388Z,47.28
2022-09-10T20:30:13.754Z,45.67
2022-09-10T20:32:51.645Z,47.22
2022-09-10T20:35:26.120Z,48.55
2022-09-10T20:37:56.611Z,47.13
2022-09-10T20:40:26.660Z,48.40
2022-09-10T20:43:01.974Z,48.38
2022-09-10T20:45:42.885Z,44.60
2022-09-10T20:48:14.828Z,47.97
2022-09-10T20:50:56.433Z,46.58
2022-09-10T20:53:26.828Z,48.25
2022-09-10T20:56:02.861Z,49.20
2022-09-10T20:58:36.860Z,57.53
2022-09-10T21:01:10.036Z,51.40
2022-09-10T21:03:39.868Z,53.70
2022-09-10T21:06:16.098Z,50.92
2022-09-10T21:08:55.419Z,41.75
2022-09-10T21:11:28.502Z,49.03
2022-09-10T21:13:58.518Z,42.63
2022-09-10T21:16:29.084Z,44.55
2022-09-10T21:19:00.761Z,46.40
2022-09-10T21:21:35.044Z,42.78
2022-09-10T21:24:06.933Z,50.75
2022-09-10T21:26:45.135Z,48.53
2022-09-10T21:29:17.980Z,49.25
2022-09-10T21:31:54.727Z,53.55
2022-09-10T21:34:28.743Z,49.03
2022-09-10T21:36:58.492Z,52.08
2022-09-10T21:39:26.984Z,51.42
2022-09-10T21:41:56.784Z,46.83
2022-09-10T21:44:26.606Z,42.55
2022-09-10T21:46:55.712Z,42.97
2022-09-10T21:49:25.234Z,46.70
2022-09-10T21:51:53.692Z,54.85
2022-09-10T21:54:22.996Z,45.40
2022-09-10T21:56:53.537Z,41.17
2022-09-10T21:59:22.171Z,49.33
2022-09-10T22:01:55.404Z,46.07
2022-09-10T22:04:27.593Z,39.65
2022-09-10T22:06:57.672Z,38.90
2022-09-10T22:09:26.417Z,41.13
2022-09-10T22:11:59.187Z,35.65
2022-09-10T22:14:28.121Z,41.80
2022-09-10T22:16:59.195Z,46.75
2022-09-10T22:19:28.142Z,51.63
2022-09-10T22:21:57.358Z,48.60
2022-09-10T22:24:27.137Z,43.67
2022-09-10T22:26:57.212Z,42.05
2022-09-10T22:29:25.960Z,39.33
2022-09-10T22:31:55.515Z,38.47
2022-09-10T22:34:25.713Z,40.95
2022-09-10T22:36:54.832Z,48.67
2022-09-10T22:39:25.526Z,34.25
2022-09-10T22:41:55.340Z,41.50
2022-09-10T22:44:26.266Z,37.97
2022-09-10T22:46:54.880Z,44.88
2022-09-10T22:49:23.322Z,40.58
2022-09-10T22:51:52.797Z,43.50
2022-09-10T22:54:22.622Z,37.10
2022-09-10T22:56:52.497Z,39.60
2022-09-10T22:59:20.961Z,42.17
2022-09-10T23:01:51.356Z,36.08
2022-09-10T23:04:19.975Z,43.22
2022-09-10T23:06:50.440Z,32.35
2022-09-10T23:09:19.544Z,29.50
2022-09-10T23:11:49.181Z,38.75
2022-09-10T23:14:21.903Z,33.88
2022-09-10T23:16:51.801Z,34.95
2022-09-10T23:19:22.965Z,36.30
2022-09-10T23:21:54.039Z,32.80
2022-09-10T23:24:28.190Z,28.43
2022-09-10T23:26:57.996Z,34.42
2022-09-10T23:29:28.003Z,32.33
2022-09-10T23:31:58.137Z,32.45
2022-09-10T23:34:27.119Z,30.15
2022-09-10T23:36:55.968Z,27.70
2022-09-10T23:39:25.741Z,30.30
2022-09-10T23:41:58.279Z,26.63
2022-09-10T23:44:28.590Z,28.98
2022-09-10T23:46:58.072Z,27.70
2022-09-10T23:49:27.611Z,27.48
2022-09-10T23:51:55.744Z,27.65
2022-09-10T23:54:24.632Z,32.50
2022-09-10T23:56:55.155Z,31.48
2022-09-10T23:59:24.120Z,30.60
